Time;durP1;ratioP1;P1;durP2;ratioP2;P2;SDS_P1;SDS_P2;PMS_P1;PMS_P2;Temp;Humidity;BMP_temperature;BMP_pressure;BME280_temperature;BME280_humidity;BME280_pressure;Samples;Min_cycle;Max_cycle;Signal;HPM_P1;HPM_P2
2024/01/07 00:02:31;;;;;;;26.38;13.18;;;;;;;1.70;100.00;101685.81;6273523;22;20479;-95
2024/01/07 00:05:09;;;;;;;29.10;13.40;;;;;;;1.67;100.00;101681.31;6250901;22;20015;-95
2024/01/07 00:07:38;;;;;;;26.38;13.45;;;;;;;1.64;100.00;101680.22;6248360;22;20447;-95
2024/01/07 00:10:10;;;;;;;28.15;14.40;;;;;;;1.63;100.00;101683.56;6220760;23;20004;-95
2024/01/07 00:12:52;;;;;;;27.02;14.23;;;;;;;1.61;100.00;101679.97;6220387;23;20083;-95
2024/01/07 00:15:22;;;;;;;28.25;13.90;;;;;;;1.63;100.00;101688.69;6219967;23;20008;-95
2024/01/07 00:18:07;;;;;;;28.50;14.10;;;;;;;1.62;100.00;101687.78;6217689;23;20463;-95
2024/01/07 00:20:54;;;;;;;29.17;13.77;;;;;;;1.61;100.00;101693.72;6219614;23;20007;-94
2024/01/07 00:23:26;;;;;;;25.98;13.50;;;;;;;1.61;100.00;101700.53;6245398;23;20079;-95
2024/01/07 00:25:57;;;;;;;30.52;13.65;;;;;;;1.58;100.00;101690.03;6244438;23;20423;-95
2024/01/07 00:28:51;;;;;;;30.35;14.50;;;;;;;1.61;100.00;101697.94;6219918;23;20007;-95
2024/01/07 00:31:22;;;;;;;28.65;13.20;;;;;;;1.64;100.00;101695.63;6220162;23;20004;-95
2024/01/07 00:33:56;;;;;;;28.55;14.10;;;;;;;1.62;100.00;101692.03;6220347;23;20011;-96
2024/01/07 00:36:24;;;;;;;24.17;12.65;;;;;;;1.62;100.00;101700.63;6220245;23;20000;-94
2024/01/07 00:38:52;;;;;;;26.83;13.35;;;;;;;1.61;100.00;101705.66;6220244;23;20011;-95
2024/01/07 00:41:20;;;;;;;26.75;12.90;;;;;;;1.63;100.00;101707.56;6220490;23;20343;-96
2024/01/07 00:43:54;;;;;;;26.67;13.20;;;;;;;1.60;100.00;101702.22;6220065;23;20075;-95
2024/01/07 00:46:45;;;;;;;27.13;13.65;;;;;;;1.59;100.00;101713.25;6244994;23;20000;-96
2024/01/07 00:49:16;;;;;;;26.92;13.07;;;;;;;1.59;100.00;101708.13;6220168;23;20155;-95
2024/01/07 00:51:45;;;;;;;25.98;13.63;;;;;;;1.58;100.00;101716.63;6219999;23;20087;-96
2024/01/07 00:54:21;;;;;;;23.30;12.13;;;;;;;1.61;100.00;101715.94;6220304;23;20062;-96
2024/01/07 00:56:51;;;;;;;21.77;10.90;;;;;;;1.59;100.00;101714.94;6213217;23;20282;-96
2024/01/07 00:59:24;;;;;;;20.58;10.98;;;;;;;1.58;100.00;101726.91;6220439;23;20087;-95
2024/01/07 01:02:13;;;;;;;23.27;11.27;;;;;;;1.56;100.00;101723.31;6220212;23;20008;-96
2024/01/07 01:04:49;;;;;;;23.90;12.38;;;;;;;1.56;100.00;101724.22;6219516;23;20047;-96
2024/01/07 01:07:34;;;;;;;23.25;11.85;;;;;;;1.56;100.00;101731.94;6220083;23;20089;-96
2024/01/07 01:10:25;;;;;;;22.48;12.10;;;;;;;1.55;100.00;101742.97;6218610;23;20087;-96
2024/01/07 01:12:57;;;;;;;24.92;12.32;;;;;;;1.56;100.00;101743.84;6218792;23;20015;-96
2024/01/07 01:15:38;;;;;;;23.52;12.13;;;;;;;1.54;100.00;101743.75;6220281;23;20015;-96
2024/01/07 01:18:22;;;;;;;23.77;12.05;;;;;;;1.52;100.00;101736.69;6219840;23;20390;-96
2024/01/07 01:20:56;;;;;;;23.20;12.02;;;;;;;1.52;100.00;101742.75;6216865;23;20037;-96
2024/01/07 01:23:35;;;;;;;23.08;11.70;;;;;;;1.53;100.00;101746.19;6219644;23;20065;-96
2024/01/07 01:26:10;;;;;;;25.50;12.45;;;;;;;1.54;100.00;101740.28;6219521;23;20028;-96
2024/01/07 01:28:52;;;;;;;26.33;13.05;;;;;;;1.55;100.00;101742.97;6220209;23;20032;-96
2024/01/07 01:31:40;;;;;;;25.15;11.70;;;;;;;1.54;100.00;101750.56;6244077;23;20004;-96
2024/01/07 01:34:14;;;;;;;26.48;13.02;;;;;;;1.53;100.00;101747.06;6245032;23;20435;-95
2024/01/07 01:36:47;;;;;;;24.58;12.48;;;;;;;1.54;100.00;101754.00;6220285;23;20004;-96
2024/01/07 01:39:22;;;;;;;27.40;13.00;;;;;;;1.55;100.00;101755.81;6218600;23;20031;-95
2024/01/07 01:42:03;;;;;;;27.35;12.40;;;;;;;1.56;100.00;101760.19;6219883;23;20054;-95
2024/01/07 01:44:41;;;;;;;27.40;13.82;;;;;;;1.55;100.00;101753.25;6219538;23;20000;-95
2024/01/07 01:47:17;;;;;;;30.30;14.15;;;;;;;1.55;100.00;101767.75;6218493;23;20043;-95
2024/01/07 01:49:51;;;;;;;29.45;13.98;;;;;;;1.54;100.00;101765.97;6218739;23;20090;-96
2024/01/07 01:52:29;;;;;;;29.42;14.40;;;;;;;1.52;100.00;101768.44;6219312;23;20018;-96
2024/01/07 01:55:01;;;;;;;32.10;14.43;;;;;;;1.51;100.00;101774.34;6219575;23;20016;-96
2024/01/07 01:57:44;;;;;;;31.23;14.77;;;;;;;1.50;100.00;101772.53;6219431;23;20028;-95
2024/01/07 02:00:21;;;;;;;31.50;14.63;;;;;;;1.46;100.00;101773.09;6243713;23;20004;-96
2024/01/07 02:02:52;;;;;;;30.92;14.52;;;;;;;1.49;100.00;101782.69;6218481;23;20020;-95
2024/01/07 02:05:29;;;;;;;30.63;13.95;;;;;;;1.48;100.00;101786.94;6220056;23;20032;-96
2024/01/07 02:07:59;;;;;;;30.98;14.60;;;;;;;1.47;100.00;101774.88;6219141;23;20079;-96
2024/01/07 02:10:34;;;;;;;33.70;14.75;;;;;;;1.47;100.00;101774.88;6244978;23;20007;-96
2024/01/07 02:13:05;;;;;;;30.00;14.00;;;;;;;1.48;100.00;101784.38;6219735;23;20004;-95
2024/01/07 02:15:33;;;;;;;30.17;13.95;;;;;;;1.48;100.00;101784.38;6219123;23;20012;-96
2024/01/07 02:18:01;;;;;;;31.33;14.75;;;;;;;1.48;100.00;101784.38;6244761;23;20364;-95
2024/01/07 02:20:30;;;;;;;30.35;13.35;;;;;;;1.47;100.00;101795.41;6219475;23;20082;-96
2024/01/07 02:23:00;;;;;;;30.47;14.33;;;;;;;1.47;100.00;101789.41;6219422;23;20467;-96
2024/01/07 02:25:31;;;;;;;31.35;14.63;;;;;;;1.46;100.00;101788.50;6219323;23;20265;-95
2024/01/07 02:27:59;;;;;;;30.20;13.73;;;;;;;1.47;100.00;101795.41;6219184;23;20058;-96
2024/01/07 02:30:30;;;;;;;29.67;14.00;;;;;;;1.46;100.00;101796.19;6219000;23;20030;-95
2024/01/07 02:33:01;;;;;;;33.22;15.98;;;;;;;1.45;100.00;101794.44;6219753;23;20000;-95
2024/01/07 02:35:29;;;;;;;29.80;14.23;;;;;;;1.44;100.00;101795.19;6243884;23;20008;-94
2024/01/07 02:37:58;;;;;;;32.67;14.47;;;;;;;1.43;100.00;101795.97;6219026;23;20062;-96
2024/01/07 02:40:34;;;;;;;29.55;14.43;;;;;;;1.44;100.00;101799.44;6219093;23;20004;-96
2024/01/07 02:43:03;;;;;;;30.20;13.80;;;;;;;1.41;100.00;101801.78;6219907;23;20012;-96
2024/01/07 02:45:29;;;;;;;34.10;15.18;;;;;;;1.43;100.00;101805.34;6246506;23;20003;-96
2024/01/07 02:48:00;;;;;;;36.05;15.40;;;;;;;1.42;100.00;101812.19;6221190;23;20427;-96
2024/01/07 02:50:28;;;;;;;32.10;15.23;;;;;;;1.40;100.00;101803.44;6221568;23;20061;-96
2024/01/07 02:53:00;;;;;;;36.45;15.38;;;;;;;1.39;100.00;101814.47;6220267;23;20027;-96
2024/01/07 02:55:33;;;;;;;35.45;16.10;;;;;;;1.39;100.00;101811.91;6221430;23;20066;-94
2024/01/07 02:58:04;;;;;;;36.95;16.52;;;;;;;1.38;100.00;101815.28;6221272;23;20510;-96
2024/01/07 03:00:45;;;;;;;38.85;17.02;;;;;;;1.38;100.00;101818.72;6220677;23;20000;-96
2024/01/07 03:03:28;;;;;;;39.55;16.95;;;;;;;1.38;100.00;101812.72;6245857;23;20050;-96
2024/01/07 03:06:08;;;;;;;40.95;18.67;;;;;;;1.36;100.00;101810.03;6245876;23;20004;-96
2024/01/07 03:09:04;;;;;;;38.15;17.52;;;;;;;1.39;100.00;101823.09;6221079;23;20004;-96
2024/01/07 03:11:34;;;;;;;38.42;16.95;;;;;;;1.39;100.00;101827.31;6221142;23;20424;-96
2024/01/07 03:14:20;;;;;;;40.53;17.63;;;;;;;1.39;100.00;101832.47;6220998;23;20090;-96
2024/01/07 03:17:00;;;;;;;43.90;18.50;;;;;;;1.39;100.00;101827.31;6246319;23;20004;-95
2024/01/07 03:19:28;;;;;;;44.75;18.05;;;;;;;1.35;100.00;101820.19;6246395;22;20394;-96
2024/01/07 03:22:06;;;;;;;47.55;19.55;;;;;;;1.37;100.00;101832.34;6220395;23;20000;-96
2024/01/07 03:24:37;;;;;;;42.90;18.17;;;;;;;1.35;100.00;101827.88;6220518;23;20015;-96
2024/01/07 03:27:09;;;;;;;38.88;18.42;;;;;;;1.36;100.00;101828.00;6154933;23;20092;-96
2024/01/07 03:30:00;;;;;;;45.45;18.83;;;;;;;1.38;100.00;101825.56;6154946;23;20433;-96
2024/01/07 03:33:12;;;;;;;37.97;17.17;;;;;;;1.42;100.00;101836.94;6156292;23;20009;-96
2024/01/07 03:35:43;;;;;;;43.08;17.90;;;;;;;1.39;100.00;101833.38;6158343;23;20009;-95
2024/01/07 03:38:16;;;;;;;40.35;17.50;;;;;;;1.41;100.00;101843.75;6154807;23;20069;-96
2024/01/07 03:40:57;;;;;;;39.10;17.65;;;;;;;1.41;100.00;101838.63;6129879;23;20032;-96
2024/01/07 03:43:47;;;;;;;44.60;18.17;;;;;;;1.39;100.00;101838.50;6154564;23;19997;-96
2024/01/07 03:46:19;;;;;;;37.72;16.73;;;;;;;1.41;100.00;101843.75;6130027;23;20010;-95
2024/01/07 03:48:50;;;;;;;37.55;17.00;;;;;;;1.39;100.00;101853.00;6154466;23;20005;-96
2024/01/07 03:51:21;;;;;;;36.15;16.02;;;;;;;1.40;100.00;101852.22;6129619;23;20408;-95
2024/01/07 03:54:02;;;;;;;37.97;16.23;;;;;;;1.37;100.00;101849.44;6153579;23;20002;-96
2024/01/07 03:56:39;;;;;;;35.72;15.10;;;;;;;1.41;100.00;101861.72;6154591;23;20013;-96
2024/01/07 03:59:12;;;;;;;35.22;15.15;;;;;;;1.39;100.00;101858.13;6213379;23;20004;-96
2024/01/07 04:02:09;;;;;;;33.78;15.75;;;;;;;1.38;100.00;101856.38;6216440;23;20004;-96
2024/01/07 04:04:59;;;;;;;35.40;15.40;;;;;;;1.39;100.00;101866.75;6206811;23;20028;-95
2024/01/07 04:07:46;;;;;;;35.40;15.15;;;;;;;1.40;100.00;101867.63;6245452;23;20004;-96
2024/01/07 04:10:39;;;;;;;33.70;15.55;;;;;;;1.40;100.00;101865.06;6210252;23;20023;-96
2024/01/07 04:13:32;;;;;;;32.83;14.82;;;;;;;1.43;100.00;101880.72;6207738;23;20009;-96
2024/01/07 04:16:03;;;;;;;31.55;15.02;;;;;;;1.42;100.00;101878.03;6200713;23;20066;-96
2024/01/07 04:18:49;;;;;;;33.17;14.85;;;;;;;1.43;100.00;101875.56;6245825;23;20501;-96
2024/01/07 04:21:32;;;;;;;32.55;14.90;;;;;;;1.43;100.00;101877.25;6219184;23;20008;-96
2024/01/07 04:24:04;;;;;;;32.42;14.10;;;;;;;1.40;100.00;101877.91;6245605;23;20010;-96
2024/01/07 04:26:35;;;;;;;31.13;13.57;;;;;;;1.42;100.00;101878.94;6220439;23;20004;-96
2024/01/07 04:29:17;;;;;;;32.88;15.50;;;;;;;1.42;100.00;101893.44;6213194;23;20015;-96
2024/01/07 04:31:50;;;;;;;34.20;14.98;;;;;;;1.39;100.00;101895.00;6220751;23;20012;-96
2024/01/07 04:34:29;;;;;;;30.63;14.48;;;;;;;1.41;100.00;101901.94;6219598;23;20032;-96
2024/01/07 04:37:25;;;;;;;30.90;13.93;;;;;;;1.40;100.00;101903.59;6245490;23;20549;-95
2024/01/07 04:43:55;;;;;;;32.10;14.23;;;;;;;1.40;100.00;101906.16;6247258;23;20027;-96
2024/01/07 04:46:41;;;;;;;27.85;13.20;;;;;;;1.38;100.00;101903.47;6246091;23;20782;-96
2024/01/07 04:49:11;;;;;;;29.77;13.27;;;;;;;1.37;100.00;101911.94;6218249;23;20008;-95
2024/01/07 04:51:48;;;;;;;30.67;13.93;;;;;;;1.36;100.00;101907.59;6219031;23;20047;-95
2024/01/07 04:54:23;;;;;;;31.00;14.50;;;;;;;1.34;100.00;101908.25;6220223;23;20335;-96
2024/01/07 04:56:52;;;;;;;30.33;14.60;;;;;;;1.35;100.00;101912.63;6216675;23;20015;-96
2024/01/07 04:59:27;;;;;;;29.27;14.40;;;;;;;1.36;100.00;101922.09;6220286;23;20061;-96
2024/01/07 05:02:14;;;;;;;31.77;14.23;;;;;;;1.36;100.00;101920.44;6219486;23;20016;-95
2024/01/07 05:05:25;;;;;;;28.33;13.48;;;;;;;1.35;100.00;101916.06;6217854;23;20004;-95
2024/01/07 05:08:00;;;;;;;29.92;13.65;;;;;;;1.38;100.00;101925.69;6211028;23;20008;-96
2024/01/07 05:13:59;;;;;;;26.90;12.52;;;;;;;1.38;100.00;101920.56;6247192;23;20058;-95
2024/01/07 05:16:48;;;;;;;24.08;11.63;;;;;;;1.35;100.00;101928.03;6244355;23;20011;-95
2024/01/07 05:19:24;;;;;;;22.00;11.30;;;;;;;1.35;100.00;101928.03;6211955;23;20057;-95
2024/01/07 05:22:08;;;;;;;22.45;10.82;;;;;;;1.32;100.00;101933.81;6215341;23;20005;-95
2024/01/07 05:25:12;;;;;;;22.27;11.23;;;;;;;1.35;100.00;101938.31;6219186;23;20427;-95
2024/01/07 05:27:52;;;;;;;21.85;10.82;;;;;;;1.30;100.00;101937.91;6245175;23;20000;-96
2024/01/07 05:30:30;;;;;;;;;;;;;;;1.35;100.00;101948.56;6217399;23;20759;-95
2024/01/07 05:33:19;;;;;;;22.40;11.25;;;;;;;1.30;100.00;101945.63;6219781;23;19958;-96
2024/01/07 05:35:58;;;;;;;19.63;9.88;;;;;;;1.26;100.00;101948.75;6219022;23;20008;-95
2024/01/07 05:38:38;;;;;;;21.30;10.48;;;;;;;1.25;100.00;101951.19;6218368;23;20024;-96
2024/01/07 05:41:16;;;;;;;20.08;10.85;;;;;;;1.25;100.00;101959.78;6219821;23;20004;-95
2024/01/07 05:44:03;;;;;;;19.40;11.20;;;;;;;1.25;100.00;101966.59;6245048;23;20004;-95
2024/01/07 05:47:15;;;;;;;16.77;10.38;;;;;;;1.22;100.00;101982.66;6183521;23;20083;-95
2024/01/07 05:52:44;;;;;;;18.15;10.63;;;;;;;1.19;100.00;101982.41;6168347;23;20012;-96
2024/01/07 05:55:19;;;;;;;19.85;11.23;;;;;;;1.17;100.00;101986.50;6183121;23;20059;-96
2024/01/07 05:58:01;;;;;;;19.65;11.00;;;;;;;1.17;100.00;101982.28;6183151;23;20005;-96
2024/01/07 06:00:42;;;;;;;21.27;11.60;;;;;;;1.16;100.00;101983.06;6181651;23;20583;-96
2024/01/07 06:06:29;;;;;;;21.20;11.45;;;;;;;1.12;100.00;101993.84;6182996;23;20013;-96
2024/01/07 06:12:53;;;;;;;18.33;10.30;;;;;;;1.14;100.00;102007.69;6184188;23;20511;-96
2024/01/07 06:16:03;;;;;;;18.52;9.88;;;;;;;1.12;100.00;102000.66;6157969;23;20009;-95
2024/01/07 06:19:02;;;;;;;16.25;9.57;;;;;;;1.12;100.00;102005.78;6211243;23;20008;-96
2024/01/07 06:21:59;;;;;;;15.90;8.68;;;;;;;1.12;100.00;102011.81;6238332;23;20015;-95
2024/01/07 06:24:42;;;;;;;19.33;10.38;;;;;;;1.11;100.00;102015.13;6213109;23;20012;-96
2024/01/07 06:31:24;;;;;;;;;;;;;;;;;;;;;
2024/01/07 06:34:34;;;;;;;17.90;10.25;;;;;;;1.08;100.00;102035.44;6245728;23;20087;-96
2024/01/07 06:40:48;;;;;;;19.10;10.20;;;;;;;1.10;100.00;102049.31;6219839;23;20015;-96
2024/01/07 06:44:00;;;;;;;18.77;10.75;;;;;;;1.11;100.00;102055.31;6114848;23;20081;-96
2024/01/07 06:46:48;;;;;;;19.45;10.48;;;;;;;1.11;100.00;102058.78;6117672;23;20010;-96
2024/01/07 06:49:38;;;;;;;20.50;11.93;;;;;;;1.08;100.00;102061.09;6115318;23;20026;-96
2024/01/07 06:52:42;;;;;;;23.92;12.27;;;;;;;1.12;100.00;102069.97;6225256;23;20435;-96
2024/01/07 06:55:19;;;;;;;23.08;12.73;;;;;;;1.11;100.00;102068.16;6232174;23;20087;-96
2024/01/07 07:03:57;;;;;;;26.15;13.68;;;;;;;1.08;100.00;102071.38;6245749;23;20020;-96
2024/01/07 07:06:36;;;;;;;28.48;14.07;;;;;;;1.07;100.00;102077.25;6219327;23;20012;-96
2024/01/07 07:09:22;;;;;;;26.90;13.73;;;;;;;1.07;100.00;102076.38;6216581;23;20342;-95
2024/01/07 07:12:29;;;;;;;;;;;;;;;;;;;;;
2024/01/07 07:17:59;;;;;;;26.55;13.75;;;;;;;1.08;100.00;102093.56;6224765;23;20050;-96
2024/01/07 07:20:46;;;;;;;26.92;13.63;;;;;;;1.07;100.00;102094.34;6218325;23;20004;-96
2024/01/07 07:23:34;;;;;;;28.38;14.88;;;;;;;1.06;100.00;102098.59;6244138;23;20008;-96
2024/01/07 07:26:35;;;;;;;24.42;13.73;;;;;;;1.05;100.00;102099.34;6218911;23;20004;-96
2024/01/07 07:29:02;;;;;;;26.58;13.88;;;;;;;1.04;100.00;102105.25;6218980;23;20624;-95
2024/01/07 07:32:06;;;;;;;25.40;14.30;;;;;;;1.04;100.00;102110.38;6246567;23;20058;-95
2024/01/07 07:34:42;;;;;;;23.48;11.93;;;;;;;1.02;100.00;102112.81;6221425;23;20023;-96
2024/01/07 07:37:17;;;;;;;19.70;10.88;;;;;;;1.02;100.00;102109.38;6221222;23;20004;-95
2024/01/07 07:40:03;;;;;;;19.58;10.70;;;;;;;1.02;100.00;102128.22;6221061;23;20082;-95
2024/01/07 07:43:02;;;;;;;18.60;10.27;;;;;;;1.02;100.00;102127.34;6220521;23;20061;-96
2024/01/07 07:46:04;;;;;;;19.88;10.80;;;;;;;0.99;100.00;102139.91;6221106;23;20079;-96
2024/01/07 07:48:35;;;;;;;19.15;10.75;;;;;;;0.93;100.00;102142.88;6220181;23;20004;-96
2024/01/07 07:54:47;;;;;;;16.55;9.80;;;;;;;0.94;100.00;102160.06;6246730;23;20043;-96
2024/01/07 07:57:51;;;;;;;16.95;9.88;;;;;;;0.92;100.00;102161.59;6246225;23;20004;-96
2024/01/07 08:00:51;;;;;;;18.70;10.45;;;;;;;0.91;100.00;102169.16;6220633;23;20008;-96
2024/01/07 08:03:32;;;;;;;18.70;10.43;;;;;;;0.89;100.00;102170.72;6219369;23;20020;-95
2024/01/07 08:10:00;;;;;;;20.05;10.18;;;;;;;0.88;100.00;102168.91;6242450;22;20038;-95
2024/01/07 08:12:57;;;;;;;20.95;10.88;;;;;;;0.86;100.00;102182.50;6220469;23;20004;-95
2024/01/07 08:15:26;;;;;;;19.00;10.77;;;;;;;0.85;100.00;102178.16;6219668;23;20038;-96
2024/01/07 08:18:00;;;;;;;19.35;10.00;;;;;;;0.84;100.00;102180.56;6220501;23;20339;-95
2024/01/07 08:27:22;;;;;;;18.48;10.25;;;;;;;0.80;100.00;102184.56;6152932;23;20009;-96
2024/01/07 08:34:04;;;;;;;19.45;10.43;;;;;;;0.83;100.00;102201.88;6154825;23;20697;-96
2024/01/07 08:47:52;;;;;;;;;;;;;;;;;;;;;
2024/01/07 08:51:01;;;;;;;19.65;10.18;;;;;;;0.78;100.00;102222.03;6155325;23;20081;-96
2024/01/07 08:57:14;;;;;;;19.40;10.23;;;;;;;0.74;100.00;102235.34;6246359;23;20011;-96
2024/01/07 09:00:26;;;;;;;17.95;9.82;;;;;;;0.75;100.00;102242.25;6214125;23;20012;-96
2024/01/07 09:06:12;;;;;;;17.85;9.38;;;;;;;0.71;100.00;102247.91;6242899;23;20100;-96
2024/01/07 09:09:23;;;;;;;15.13;9.30;;;;;;;0.71;100.00;102249.56;6154138;23;20017;-96
2024/01/07 09:11:52;;;;;;;17.70;9.70;;;;;;;0.71;100.00;102260.75;6129921;23;20009;-96
2024/01/07 09:14:18;;;;;;;16.83;9.83;;;;;;;0.71;100.00;102258.19;6154337;23;20006;-96
2024/01/07 09:16:43;;;;;;;17.75;9.48;;;;;;;0.72;100.00;102259.94;6129507;23;20009;-96
2024/01/07 09:19:12;;;;;;;16.38;9.38;;;;;;;0.72;100.00;102265.09;6154002;23;20080;-96
2024/01/07 09:21:40;;;;;;;17.85;10.05;;;;;;;0.72;100.00;102275.34;6154303;23;20345;-96
2024/01/07 09:24:08;;;;;;;20.92;11.18;;;;;;;0.71;100.00;102264.94;6129932;23;20009;-96
2024/01/07 09:26:39;;;;;;;16.42;9.70;;;;;;;0.71;100.00;102275.22;6129203;23;20013;-96
2024/01/07 09:29:05;;;;;;;14.75;9.57;;;;;;;0.72;100.00;102274.47;6128322;23;20005;-96
2024/01/07 09:31:30;;;;;;;15.27;9.27;;;;;;;0.70;100.00;102276.91;6129315;23;20013;-95
2024/01/07 09:34:06;;;;;;;16.60;9.95;;;;;;;0.71;100.00;102288.97;6203235;23;20008;-96
2024/01/07 09:36:56;;;;;;;16.23;9.70;;;;;;;0.72;100.00;102290.75;6221608;23;20048;-96
2024/01/07 09:39:22;;;;;;;15.32;9.10;;;;;;;0.71;100.00;102288.97;6219823;23;20145;-96
2024/01/07 09:41:50;;;;;;;15.82;10.07;;;;;;;0.72;100.00;102295.88;6219769;23;19996;-95
2024/01/07 09:44:24;;;;;;;16.30;9.27;;;;;;;0.73;100.00;102300.25;6219655;23;20000;-96
2024/01/07 09:46:51;;;;;;;15.63;9.20;;;;;;;0.74;100.00;102309.75;6219908;23;20087;-96
2024/01/07 09:49:28;;;;;;;16.90;9.50;;;;;;;0.75;100.00;102316.66;6219613;23;19999;-96
2024/01/07 09:52:02;;;;;;;13.93;8.23;;;;;;;0.73;100.00;102307.94;6219218;23;20004;-96
2024/01/07 09:54:33;;;;;;;14.30;8.32;;;;;;;0.69;100.00;102317.00;6219594;23;20135;-96
2024/01/07 09:57:01;;;;;;;14.55;9.00;;;;;;;0.69;100.00;102327.28;6219650;23;20008;-95
2024/01/07 09:59:36;;;;;;;14.30;9.10;;;;;;;0.67;100.00;102323.69;6219865;23;20000;-96
2024/01/07 10:02:05;;;;;;;13.82;8.55;;;;;;;0.66;100.00;102323.56;6219236;23;20000;-96
2024/01/07 10:04:31;;;;;;;12.85;8.65;;;;;;;0.67;100.00;102327.94;6219905;23;20012;-95
2024/01/07 10:06:57;;;;;;;14.90;9.23;;;;;;;0.64;100.00;102337.94;6218309;23;20418;-96
2024/01/07 10:09:28;;;;;;;16.17;9.13;;;;;;;0.63;100.00;102338.69;6219626;23;20035;-95
2024/01/07 10:11:54;;;;;;;13.70;8.50;;;;;;;0.62;100.00;102339.44;6219607;23;20004;-95
2024/01/07 10:14:23;;;;;;;14.00;8.73;;;;;;;0.62;100.00;102334.31;6220075;23;20004;-96
2024/01/07 10:16:50;;;;;;;13.68;8.65;;;;;;;0.62;100.00;102344.56;6219537;23;20019;-95
2024/01/07 10:19:44;;;;;;;15.20;9.20;;;;;;;0.60;100.00;102343.56;6219634;23;20049;-94
2024/01/07 10:22:12;;;;;;;14.35;8.90;;;;;;;0.58;100.00;102348.56;6219464;23;20071;-96
2024/01/07 10:24:43;;;;;;;15.88;9.35;;;;;;;0.61;100.00;102358.16;6219206;23;20000;-95
2024/01/07 10:27:13;;;;;;;13.93;8.55;;;;;;;0.59;100.00;102349.44;6218600;23;20339;-95
2024/01/07 10:29:49;;;;;;;16.92;9.32;;;;;;;0.59;100.00;102349.44;6219528;23;20450;-95
2024/01/07 10:32:15;;;;;;;15.80;9.18;;;;;;;0.58;100.00;102348.56;6219368;23;20000;-95
2024/01/07 10:34:47;;;;;;;14.05;9.13;;;;;;;0.60;100.00;102346.13;6219915;23;20082;-95
2024/01/07 10:37:13;;;;;;;14.23;9.02;;;;;;;0.59;100.00;102359.69;6219183;23;20008;-94
2024/01/07 10:39:38;;;;;;;16.27;8.82;;;;;;;0.58;100.00;102347.63;6219477;23;20016;-95
2024/01/07 10:42:07;;;;;;;15.70;9.18;;;;;;;0.58;100.00;102352.75;6218983;23;20501;-95
2024/01/07 10:44:35;;;;;;;16.77;9.67;;;;;;;0.59;100.00;102355.44;6219407;23;20423;-94
2024/01/07 10:47:06;;;;;;;15.88;9.45;;;;;;;0.59;100.00;102346.88;6219580;23;20274;-96
2024/01/07 10:49:37;;;;;;;15.63;9.10;;;;;;;0.62;100.00;102354.84;6219325;23;20008;-96
2024/01/07 10:52:13;;;;;;;16.58;10.02;;;;;;;0.62;100.00;102355.75;6219407;23;20516;-96
2024/01/07 10:54:42;;;;;;;17.15;9.40;;;;;;;0.64;100.00;102354.22;6218593;23;20011;-95
2024/01/07 10:57:26;;;;;;;15.93;9.40;;;;;;;0.67;100.00;102358.72;6219807;23;20004;-95
2024/01/07 10:59:54;;;;;;;16.45;8.93;;;;;;;0.67;100.00;102366.41;6244710;23;20015;-96
2024/01/07 11:02:23;;;;;;;14.85;9.68;;;;;;;0.67;100.00;102354.47;6219073;23;20233;-94
2024/01/07 11:05:15;;;;;;;16.33;9.40;;;;;;;0.71;100.00;102359.88;6220552;23;20435;-95
2024/01/07 11:07:47;;;;;;;16.67;9.93;;;;;;;0.68;100.00;102363.06;6221531;22;20015;-95
2024/01/07 11:10:50;;;;;;;17.55;9.73;;;;;;;0.69;100.00;102359.75;6221186;23;20006;-95
2024/01/07 11:13:40;;;;;;;15.45;9.48;;;;;;;0.72;100.00;102367.69;6220381;23;20008;-96
2024/01/07 11:16:09;;;;;;;16.13;9.23;;;;;;;0.72;100.00;102362.56;6221610;23;20004;-95
2024/01/07 11:18:52;;;;;;;15.38;9.20;;;;;;;0.76;100.00;102366.31;6221055;23;20008;-95
2024/01/07 11:21:26;;;;;;;16.05;9.20;;;;;;;0.77;100.00;102370.66;6221288;23;20091;-95
2024/01/07 11:23:52;;;;;;;16.50;10.00;;;;;;;0.75;100.00;102365.41;6220971;23;20000;-96
2024/01/07 11:26:21;;;;;;;15.73;9.65;;;;;;;0.76;100.00;102364.66;6221128;23;20004;-95
2024/01/07 11:28:54;;;;;;;17.53;9.33;;;;;;;0.78;100.00;102375.03;6221676;23;20087;-95
2024/01/07 11:31:39;;;;;;;15.75;9.07;;;;;;;0.78;100.00;102373.41;6221390;23;20101;-95
2024/01/07 11:34:06;;;;;;;16.05;9.60;;;;;;;0.80;100.00;102371.84;6219866;23;20004;-95
2024/01/07 11:36:37;;;;;;;18.23;9.43;;;;;;;0.80;100.00;102383.78;6220750;23;20019;-96
2024/01/07 11:39:15;;;;;;;18.20;10.20;;;;;;;0.78;100.00;102375.97;6220763;23;20046;-95
2024/01/07 11:41:43;;;;;;;15.80;9.43;;;;;;;0.79;100.00;102377.72;6220845;23;20007;-95
2024/01/07 11:44:14;;;;;;;16.42;9.15;;;;;;;0.78;100.00;102364.78;6221161;23;20071;-96
2024/01/07 11:46:44;;;;;;;16.77;9.45;;;;;;;0.78;100.00;102367.34;6221115;23;20004;-94
2024/01/07 11:49:21;;;;;;;19.95;9.68;;;;;;;0.79;100.00;102375.16;6221229;23;20012;-95
2024/01/07 11:51:47;;;;;;;18.90;9.85;;;;;;;0.80;100.00;102360.69;6220887;23;20008;-95
2024/01/07 11:54:15;;;;;;;16.08;8.95;;;;;;;0.83;100.00;102366.09;6219855;23;20008;-94
2024/01/07 11:56:47;;;;;;;16.50;9.18;;;;;;;0.84;100.00;102362.75;6247830;23;20583;-95
2024/01/07 11:59:33;;;;;;;15.50;8.32;;;;;;;0.86;100.00;102364.69;6220898;23;20035;-95
2024/01/07 12:02:20;;;;;;;16.42;8.70;;;;;;;0.86;100.00;102363.78;6220976;23;20042;-95
2024/01/07 12:04:50;;;;;;;15.85;8.80;;;;;;;0.87;100.00;102363.03;6220769;23;20063;-96
2024/01/07 12:07:16;;;;;;;16.70;8.82;;;;;;;0.85;100.00;102367.13;6220385;23;20012;-95
2024/01/07 12:09:57;;;;;;;17.65;9.23;;;;;;;0.85;100.00;102365.47;6220905;23;20016;-96
2024/01/07 12:12:32;;;;;;;15.10;8.63;;;;;;;0.86;100.00;102361.22;6220360;23;20079;-94
2024/01/07 12:15:04;;;;;;;13.57;8.75;;;;;;;0.85;100.00;102370.59;6220068;23;20008;-96
2024/01/07 12:17:33;;;;;;;13.85;8.30;;;;;;;0.88;100.00;102377.63;6220504;23;20066;-95
2024/01/07 12:20:04;;;;;;;;;;;;;;;0.93;100.00;102378.03;6221002;23;20063;-95
2024/01/07 12:22:30;;;;;;;14.35;7.53;;;;;;;0.88;100.00;102377.63;6220440;23;19974;-95
2024/01/07 12:25:05;;;;;;;12.90;7.28;;;;;;;0.88;100.00;102384.44;6220826;23;20003;-95
2024/01/07 12:27:31;;;;;;;11.23;6.97;;;;;;;0.90;100.00;102382.91;6220394;23;20054;-94
2024/01/07 12:29:57;;;;;;;12.82;7.75;;;;;;;0.93;100.00;102383.16;6245702;23;20004;-95
2024/01/07 12:32:32;;;;;;;12.50;7.78;;;;;;;0.95;100.00;102389.34;6220615;23;20577;-96
2024/01/07 12:35:01;;;;;;;12.60;7.45;;;;;;;0.93;100.00;102388.31;6220843;23;20008;-95
2024/01/07 12:37:30;;;;;;;;;;;;;;;0.98;100.00;102397.31;6246378;23;20008;-95
2024/01/07 12:39:58;;;;;;;12.40;7.50;;;;;;;0.93;100.00;102386.66;6220651;23;19931;-96
2024/01/07 12:42:31;;;;;;;13.50;7.28;;;;;;;0.89;100.00;102397.41;6220590;23;20004;-95
2024/01/07 12:44:59;;;;;;;13.85;8.65;;;;;;;0.86;100.00;102390.34;6220522;23;20411;-95
2024/01/07 12:47:36;;;;;;;13.55;8.48;;;;;;;0.83;100.00;102391.75;6220796;23;20047;-96
2024/01/07 12:50:08;;;;;;;12.32;7.47;;;;;;;0.82;100.00;102403.66;6220624;23;20024;-96
2024/01/07 12:52:40;;;;;;;12.27;7.18;;;;;;;0.77;100.00;102404.94;6220470;23;20008;-95
2024/01/07 12:55:08;;;;;;;12.13;6.97;;;;;;;0.76;100.00;102400.56;6245796;23;20000;-96
2024/01/07 12:57:37;;;;;;;11.35;7.20;;;;;;;0.76;100.00;102405.69;6220750;23;20000;-95
2024/01/07 13:00:06;;;;;;;11.57;7.28;;;;;;;0.77;100.00;102411.72;6220342;23;20000;-95
2024/01/07 13:02:35;;;;;;;;;;;;;;;0.84;100.00;102414.06;6220658;23;20435;-96
2024/01/07 13:05:07;;;;;;;11.25;6.43;;;;;;;0.81;100.00;102413.78;6245427;23;19974;-95
2024/01/07 13:07:35;;;;;;;11.32;6.95;;;;;;;0.80;100.00;102423.16;6220284;22;20423;-95
2024/01/07 13:10:10;;;;;;;10.95;6.65;;;;;;;0.82;100.00;102419.06;6219266;23;20000;-95
2024/01/07 13:12:45;;;;;;;10.43;6.35;;;;;;;0.80;100.00;102423.16;6218989;23;20343;-96
2024/01/07 13:15:10;;;;;;;11.35;6.70;;;;;;;0.81;100.00;102419.84;6219624;23;20008;-96